createdAt,value
2019-02-03T00:00:15.944Z,2.66
2019-02-03T00:02:45.578Z,2.39
2019-02-03T00:05:15.271Z,2.49
2019-02-03T00:07:44.754Z,2.55
2019-02-03T00:10:14.415Z,2.45
2019-02-03T00:12:43.905Z,2.49
2019-02-03T00:15:13.921Z,2.59
2019-02-03T00:17:43.444Z,2.60
2019-02-03T00:20:13.449Z,2.40
2019-02-03T00:22:43.131Z,2.40
2019-02-03T00:25:12.770Z,2.39
2019-02-03T00:27:42.403Z,2.37
2019-02-03T00:30:15.175Z,2.27
2019-02-03T00:32:44.754Z,2.31
2019-02-03T00:35:15.270Z,2.34
2019-02-03T00:37:44.825Z,2.46
2019-02-03T00:40:15.949Z,2.38
2019-02-03T00:42:45.527Z,2.31
2019-02-03T00:45:15.869Z,2.26
2019-02-03T00:47:45.541Z,2.31
2019-02-03T00:50:16.990Z,2.25
2019-02-03T00:52:46.566Z,2.14
2019-02-03T00:55:18.534Z,2.32
2019-02-03T00:57:48.098Z,2.17
2019-02-03T01:00:18.889Z,2.00
2019-02-03T01:02:48.387Z,2.30
2019-02-03T01:05:19.569Z,2.09
2019-02-03T01:07:49.201Z,1.96
2019-02-03T01:10:23.679Z,1.94
2019-02-03T01:12:53.327Z,2.14
2019-02-03T01:15:22.961Z,1.91
2019-02-03T01:17:52.530Z,1.90
2019-02-03T01:20:26.800Z,1.87
2019-02-03T01:22:56.494Z,1.84
2019-02-03T01:25:26.000Z,1.92
2019-02-03T01:27:55.692Z,2.06
2019-02-03T01:30:26.146Z,1.90
2019-02-03T01:32:55.695Z,1.98
2019-02-03T01:35:25.330Z,2.05
2019-02-03T01:37:55.112Z,1.88
2019-02-03T01:40:24.835Z,1.83
2019-02-03T01:42:54.394Z,1.62
2019-02-03T01:45:24.583Z,1.43
2019-02-03T01:47:54.220Z,1.52
2019-02-03T01:50:24.140Z,1.45
2019-02-03T01:52:53.704Z,1.36
2019-02-03T01:55:26.506Z,1.23
2019-02-03T01:57:56.180Z,1.34
2019-02-03T02:00:28.894Z,1.32
2019-02-03T02:02:58.658Z,1.35
2019-02-03T02:05:28.282Z,1.46
2019-02-03T02:07:57.851Z,1.73
2019-02-03T02:10:29.374Z,1.87
2019-02-03T02:12:59.010Z,2.03
2019-02-03T02:15:28.694Z,2.13
2019-02-03T02:17:58.207Z,2.02
2019-02-03T02:20:30.103Z,2.27
2019-02-03T02:22:59.721Z,2.26
2019-02-03T02:25:29.298Z,2.24
2019-02-03T02:27:58.860Z,2.14
2019-02-03T02:30:28.829Z,2.25
2019-02-03T02:32:58.479Z,2.10
2019-02-03T02:35:28.081Z,2.20
2019-02-03T02:38:06.344Z,2.21
2019-02-03T02:40:28.791Z,2.21
2019-02-03T02:42:58.657Z,2.16
2019-02-03T02:45:28.146Z,2.13
2019-02-03T02:47:57.638Z,2.05
2019-02-03T02:50:37.133Z,2.17
2019-02-03T02:53:06.628Z,2.02
2019-02-03T02:55:36.175Z,1.87
2019-02-03T02:58:06.170Z,2.02
2019-02-03T03:00:35.812Z,1.88
2019-02-03T03:03:05.559Z,1.84
2019-02-03T03:05:35.068Z,1.74
2019-02-03T03:08:18.429Z,1.84
2019-02-03T03:10:36.936Z,2.16
2019-02-03T03:13:06.636Z,2.25
2019-02-03T03:15:36.128Z,2.16
2019-02-03T03:18:06.063Z,2.26
2019-02-03T03:20:36.025Z,2.10
2019-02-03T03:23:05.693Z,2.21
2019-02-03T03:25:35.256Z,2.22
2019-02-03T03:28:04.907Z,2.24
2019-02-03T03:30:34.584Z,2.17
2019-02-03T03:33:04.415Z,2.12
2019-02-03T03:35:34.547Z,2.07
2019-02-03T03:38:04.486Z,2.07
2019-02-03T03:40:35.033Z,1.94
2019-02-03T03:43:04.866Z,2.08
2019-02-03T03:45:34.430Z,2.15
2019-02-03T03:48:04.350Z,2.08
2019-02-03T03:50:33.864Z,2.20
2019-02-03T03:53:03.538Z,2.13
2019-02-03T03:55:33.155Z,2.07
2019-02-03T03:58:02.638Z,2.21
2019-02-03T04:00:32.602Z,2.23
2019-02-03T04:03:02.070Z,2.13
2019-02-03T04:05:31.828Z,2.22
2019-02-03T04:08:01.319Z,2.17
2019-02-03T04:10:30.815Z,1.81
2019-02-03T04:13:00.289Z,1.90
2019-02-03T04:15:29.851Z,2.09
2019-02-03T04:17:59.367Z,1.90
2019-02-03T04:20:31.447Z,2.20
2019-02-03T04:23:00.993Z,1.85
2019-02-03T04:25:30.482Z,1.88
2019-02-03T04:28:00.319Z,1.89
2019-02-03T04:30:29.883Z,1.80
2019-02-03T04:32:59.369Z,1.83
2019-02-03T04:35:28.868Z,1.88
2019-02-03T04:37:58.455Z,1.95
2019-02-03T04:40:28.032Z,2.11
2019-02-03T04:42:57.611Z,2.27
2019-02-03T04:45:27.096Z,2.45
2019-02-03T04:47:56.607Z,2.53
2019-02-03T04:50:26.090Z,2.35
2019-02-03T04:52:55.604Z,2.22
2019-02-03T04:55:25.329Z,2.09
2019-02-03T04:57:54.905Z,2.35
2019-02-03T05:00:25.601Z,2.37
2019-02-03T05:02:55.091Z,2.35
2019-02-03T05:05:24.683Z,2.14
2019-02-03T05:07:54.811Z,2.25
2019-02-03T05:10:24.376Z,2.34
2019-02-03T05:12:53.940Z,2.33
2019-02-03T05:15:24.549Z,2.30
2019-02-03T05:17:54.128Z,2.27
2019-02-03T05:20:26.425Z,2.33
2019-02-03T05:22:56.094Z,2.31
2019-02-03T05:25:25.680Z,2.41
2019-02-03T05:27:55.269Z,2.39
2019-02-03T05:30:31.420Z,2.30
2019-02-03T05:33:01.260Z,2.24
2019-02-03T05:35:30.885Z,2.34
2019-02-03T05:38:00.565Z,2.29
2019-02-03T05:40:30.112Z,2.08
2019-02-03T05:42:59.677Z,1.91
2019-02-03T05:45:29.232Z,1.87
2019-02-03T05:47:58.719Z,1.84
2019-02-03T05:50:28.207Z,1.92
2019-02-03T05:52:57.723Z,1.93
2019-02-03T05:55:27.287Z,1.75
2019-02-03T05:57:56.781Z,1.71
2019-02-03T06:00:36.122Z,1.56
2019-02-03T06:03:05.917Z,1.38
2019-02-03T06:05:35.502Z,1.37
2019-02-03T06:08:05.487Z,1.30
2019-02-03T06:10:35.055Z,1.23
2019-02-03T06:13:04.600Z,1.41
2019-02-03T06:15:34.091Z,1.43
2019-02-03T06:18:03.779Z,1.33
2019-02-03T06:20:33.262Z,1.39
2019-02-03T06:23:02.762Z,1.45
2019-02-03T06:25:32.714Z,1.53
2019-02-03T06:28:02.206Z,1.69
2019-02-03T06:30:51.512Z,1.76
2019-02-03T06:33:21.022Z,1.94
2019-02-03T06:35:50.952Z,1.99
2019-02-03T06:38:20.489Z,2.04
2019-02-03T06:40:50.116Z,1.94
2019-02-03T06:43:19.627Z,2.06
2019-02-03T06:45:48.890Z,2.12
2019-02-03T06:48:28.568Z,2.11
2019-02-03T06:50:58.188Z,2.14
2019-02-03T06:53:27.695Z,2.17
2019-02-03T06:55:57.182Z,2.20
2019-02-03T06:58:28.232Z,2.23
2019-02-03T07:00:58.087Z,2.20
2019-02-03T07:03:27.570Z,2.03
2019-02-03T07:05:57.245Z,2.28
2019-02-03T07:08:26.738Z,2.46
2019-02-03T07:10:56.241Z,2.33
2019-02-03T07:13:25.797Z,2.34
2019-02-03T07:15:55.311Z,2.22
2019-02-03T07:18:24.863Z,2.17
2019-02-03T07:20:54.384Z,2.30
2019-02-03T07:23:23.948Z,2.40
2019-02-03T07:25:53.442Z,2.32
2019-02-03T07:28:23.213Z,2.30
2019-02-03T07:30:52.757Z,2.48
2019-02-03T07:33:22.397Z,2.48
2019-02-03T07:35:52.028Z,2.30
2019-02-03T07:38:21.542Z,2.41
2019-02-03T07:40:52.271Z,2.45
2019-02-03T07:43:21.762Z,2.55
2019-02-03T07:45:51.398Z,2.48
2019-02-03T07:48:20.979Z,2.43
2019-02-03T07:50:50.536Z,2.64
2019-02-03T07:53:20.099Z,2.53
2019-02-03T07:55:49.632Z,2.60
2019-02-03T07:58:19.130Z,2.54
2019-02-03T08:00:48.708Z,2.71
2019-02-03T08:03:18.264Z,2.76
2019-02-03T08:05:47.821Z,2.92
2019-02-03T08:08:17.407Z,2.90
2019-02-03T08:10:47.039Z,2.83
2019-02-03T08:13:16.673Z,2.95
2019-02-03T08:15:46.235Z,3.02
2019-02-03T08:18:15.818Z,3.06
2019-02-03T08:20:45.502Z,3.13
2019-02-03T08:23:15.436Z,2.98
2019-02-03T08:25:44.934Z,3.10
2019-02-03T08:28:14.459Z,3.10
2019-02-03T08:30:43.964Z,3.07
2019-02-03T08:33:13.503Z,3.00
2019-02-03T08:35:42.983Z,3.06
2019-02-03T08:38:12.509Z,3.20
2019-02-03T08:40:42.184Z,3.16
2019-02-03T08:43:11.774Z,3.17
2019-02-03T08:45:41.412Z,3.24
2019-02-03T08:48:11.114Z,3.21
2019-02-03T08:50:41.174Z,3.39
2019-02-03T08:53:10.825Z,3.32
2019-02-03T08:55:40.386Z,3.51
2019-02-03T08:58:12.391Z,3.34
2019-02-03T09:00:44.056Z,3.33
2019-02-03T09:03:14.004Z,3.53
2019-02-03T09:05:43.581Z,3.34
2019-02-03T09:08:13.167Z,3.51
2019-02-03T09:10:48.422Z,3.43
2019-02-03T09:13:13.985Z,3.68
2019-02-03T09:15:43.628Z,3.94
2019-02-03T09:18:13.205Z,4.11
2019-02-03T09:20:42.757Z,3.92
2019-02-03T09:23:12.252Z,3.73
2019-02-03T09:25:41.732Z,3.79
2019-02-03T09:28:11.310Z,3.77
2019-02-03T09:30:40.978Z,3.50
2019-02-03T09:33:10.650Z,3.76
2019-02-03T09:35:40.201Z,3.72
2019-02-03T09:38:09.935Z,4.13
2019-02-03T09:40:39.454Z,4.44
2019-02-03T09:43:09.017Z,4.76
2019-02-03T09:45:38.659Z,4.85
2019-02-03T09:48:08.311Z,5.55
2019-02-03T09:50:37.914Z,5.43
2019-02-03T09:53:07.874Z,5.06
2019-02-03T09:55:37.516Z,4.90
2019-02-03T09:58:07.791Z,4.67
2019-02-03T10:00:38.901Z,4.52
2019-02-03T10:03:12.123Z,4.96
2019-02-03T10:05:41.750Z,5.10
2019-02-03T10:08:11.446Z,5.24
2019-02-03T10:10:42.717Z,5.21
2019-02-03T10:13:12.353Z,5.17
2019-02-03T10:15:41.973Z,5.21
2019-02-03T10:18:11.747Z,5.62
2019-02-03T10:20:41.299Z,5.59
2019-02-03T10:23:10.858Z,5.40
2019-02-03T10:25:40.489Z,5.60
2019-02-03T10:28:10.295Z,5.44
2019-02-03T10:30:39.942Z,6.04
2019-02-03T10:33:09.484Z,6.11
2019-02-03T10:35:39.035Z,6.59
2019-02-03T10:38:09.256Z,7.11
2019-02-03T10:40:43.692Z,7.11
2019-02-03T10:43:13.411Z,6.70
2019-02-03T10:45:42.991Z,6.86
2019-02-03T10:48:12.637Z,7.05
2019-02-03T10:50:43.010Z,7.14
2019-02-03T10:53:13.514Z,7.10
2019-02-03T10:55:43.182Z,7.09
2019-02-03T10:58:12.764Z,7.06
2019-02-03T11:00:44.249Z,6.84
2019-02-03T11:03:13.888Z,6.96
2019-02-03T11:05:50.943Z,6.52
2019-02-03T11:08:20.600Z,6.96
2019-02-03T11:10:50.473Z,7.04
2019-02-03T11:13:20.055Z,7.07
2019-02-03T11:15:49.693Z,7.03
2019-02-03T11:18:19.550Z,7.17
2019-02-03T11:20:49.112Z,7.22
2019-02-03T11:23:18.654Z,7.62
2019-02-03T11:25:48.393Z,7.80
2019-02-03T11:28:17.942Z,8.02
2019-02-03T11:30:47.680Z,7.55
2019-02-03T11:33:17.668Z,7.59
2019-02-03T11:35:47.239Z,7.00
2019-02-03T11:38:16.904Z,7.28
2019-02-03T11:40:46.397Z,7.36
2019-02-03T11:43:15.902Z,7.43
2019-02-03T11:45:45.431Z,6.94
2019-02-03T11:48:20.112Z,7.05
2019-02-03T11:50:51.018Z,7.17
2019-02-03T11:53:26.334Z,7.10
2019-02-03T11:55:56.489Z,6.66
2019-02-03T11:58:26.021Z,6.47
2019-02-03T12:00:56.120Z,6.34
2019-02-03T12:03:25.783Z,6.05
2019-02-03T12:05:55.412Z,6.22
2019-02-03T12:08:24.990Z,6.48
2019-02-03T12:10:54.557Z,6.58
2019-02-03T12:13:24.116Z,7.43
2019-02-03T12:15:53.839Z,7.67
2019-02-03T12:18:23.425Z,7.44
2019-02-03T12:20:53.127Z,7.29
2019-02-03T12:23:22.704Z,7.57
2019-02-03T12:25:52.674Z,7.28
2019-02-03T12:28:22.195Z,7.64
2019-02-03T12:30:51.908Z,7.79
2019-02-03T12:33:21.456Z,7.60
2019-02-03T12:35:51.061Z,7.40
2019-02-03T12:38:20.898Z,6.98
2019-02-03T12:40:50.486Z,6.76
2019-02-03T12:43:19.978Z,6.66
2019-02-03T12:45:49.477Z,6.54
2019-02-03T12:48:19.103Z,6.12
2019-02-03T12:50:48.667Z,6.62
2019-02-03T12:53:18.333Z,7.02
2019-02-03T12:55:47.916Z,7.33
2019-02-03T12:58:19.474Z,7.27
2019-02-03T13:00:49.542Z,7.47
2019-02-03T13:03:19.353Z,7.58
2019-02-03T13:05:49.499Z,7.35
2019-02-03T13:08:18.970Z,6.96
2019-02-03T13:10:48.547Z,6.73
2019-02-03T13:13:18.073Z,6.89
2019-02-03T13:15:51.066Z,7.97
2019-02-03T13:18:20.942Z,8.06
2019-02-03T13:20:50.516Z,7.70
2019-02-03T13:23:20.166Z,7.29
2019-02-03T13:25:49.785Z,7.53
2019-02-03T13:28:19.380Z,7.44
2019-02-03T13:30:50.751Z,7.67
2019-02-03T13:33:21.486Z,7.85
2019-02-03T13:35:52.737Z,7.63
2019-02-03T13:38:22.227Z,7.87
2019-02-03T13:40:51.902Z,7.87
2019-02-03T13:43:23.115Z,7.67
2019-02-03T13:45:52.692Z,7.54
2019-02-03T13:48:22.189Z,7.15
2019-02-03T13:50:54.663Z,7.00
2019-02-03T13:53:22.987Z,6.95
2019-02-03T13:55:52.757Z,7.11
2019-02-03T13:58:22.319Z,7.32
2019-02-03T14:00:51.969Z,7.64
2019-02-03T14:03:21.619Z,7.70
2019-02-03T14:05:51.098Z,7.62
2019-02-03T14:08:20.700Z,7.66
2019-02-03T14:10:50.244Z,7.81
2019-02-03T14:13:19.888Z,7.87
2019-02-03T14:15:49.387Z,7.84
2019-02-03T14:18:18.907Z,7.57
2019-02-03T14:20:48.471Z,7.66
2019-02-03T14:23:18.031Z,7.75
2019-02-03T14:25:47.527Z,7.47
2019-02-03T14:28:17.146Z,7.34
2019-02-03T14:30:46.827Z,7.37
2019-02-03T14:33:16.415Z,7.23
2019-02-03T14:35:46.523Z,7.04
2019-02-03T14:38:16.223Z,6.92
2019-02-03T14:40:45.736Z,6.90
2019-02-03T14:43:15.398Z,6.96
2019-02-03T14:45:45.047Z,7.30
2019-02-03T14:48:14.550Z,7.54
2019-02-03T14:50:44.137Z,7.56
2019-02-03T14:53:14.340Z,7.41
2019-02-03T14:55:46.147Z,7.61
2019-02-03T14:58:15.734Z,7.59
2019-02-03T15:00:48.068Z,7.30
2019-02-03T15:03:19.970Z,7.24
2019-02-03T15:05:50.102Z,7.00
2019-02-03T15:08:19.737Z,6.72
2019-02-03T15:10:49.404Z,6.78
2019-02-03T15:13:18.957Z,6.59
2019-02-03T15:15:48.846Z,6.60
2019-02-03T15:18:18.443Z,6.49
2019-02-03T15:20:47.986Z,6.51
2019-02-03T15:23:17.468Z,6.46
2019-02-03T15:25:47.032Z,6.39
2019-02-03T15:28:16.997Z,6.24
2019-02-03T15:30:47.084Z,6.20
2019-02-03T15:33:16.745Z,6.07
2019-02-03T15:35:46.307Z,6.08
2019-02-03T15:38:15.929Z,6.18
2019-02-03T15:40:45.686Z,6.07
2019-02-03T15:43:25.215Z,6.03
2019-02-03T15:45:46.542Z,5.93
2019-02-03T15:48:16.092Z,6.14
2019-02-03T15:50:45.600Z,6.04
2019-02-03T15:53:15.290Z,5.95
2019-02-03T15:55:44.844Z,5.84
2019-02-03T15:58:14.936Z,5.87
2019-02-03T16:00:51.467Z,5.86
2019-02-03T16:03:21.093Z,5.67
2019-02-03T16:05:51.142Z,5.57
2019-02-03T16:08:20.636Z,5.73
2019-02-03T16:10:50.201Z,5.63
2019-02-03T16:13:19.761Z,5.62
2019-02-03T16:15:49.362Z,5.77
2019-02-03T16:18:18.905Z,5.75
2019-02-03T16:20:48.427Z,5.48
2019-02-03T16:23:17.918Z,5.53
2019-02-03T16:25:47.536Z,5.69
2019-02-03T16:28:17.106Z,5.67
2019-02-03T16:30:46.683Z,5.60
2019-02-03T16:33:16.167Z,5.44
2019-02-03T16:35:45.715Z,5.53
2019-02-03T16:38:22.933Z,5.56
2019-02-03T16:40:46.502Z,5.53
2019-02-03T16:43:16.446Z,5.40
2019-02-03T16:45:46.066Z,5.42
2019-02-03T16:48:15.686Z,5.32
2019-02-03T16:50:45.335Z,5.22
2019-02-03T16:53:14.824Z,5.07
2019-02-03T16:55:44.396Z,4.94
2019-02-03T16:58:13.967Z,4.78
2019-02-03T17:00:43.603Z,4.79
2019-02-03T17:03:13.255Z,4.56
2019-02-03T17:05:42.794Z,4.44
2019-02-03T17:08:13.576Z,4.62
2019-02-03T17:10:44.164Z,4.61
2019-02-03T17:13:13.902Z,4.60
2019-02-03T17:15:51.238Z,4.45
2019-02-03T17:18:20.795Z,4.10
2019-02-03T17:21:01.300Z,3.95
2019-02-03T17:23:21.646Z,3.84
2019-02-03T17:25:58.836Z,3.84
2019-02-03T17:28:28.391Z,3.86
2019-02-03T17:30:58.127Z,3.91
2019-02-03T17:33:27.610Z,3.78
2019-02-03T17:35:57.177Z,4.01
2019-02-03T17:38:26.779Z,3.80
2019-02-03T17:40:56.267Z,3.50
2019-02-03T17:43:25.980Z,3.32
2019-02-03T17:45:55.565Z,3.26
2019-02-03T17:48:25.148Z,3.19
2019-02-03T17:50:54.773Z,3.24
2019-02-03T17:53:24.712Z,3.20
2019-02-03T17:55:54.442Z,3.23
2019-02-03T17:58:24.061Z,2.98
2019-02-03T18:01:01.307Z,2.99
2019-02-03T18:03:31.048Z,3.06
2019-02-03T18:06:00.913Z,2.99
2019-02-03T18:08:30.433Z,3.01
2019-02-03T18:10:59.948Z,2.96
2019-02-03T18:13:29.530Z,2.85
2019-02-03T18:15:59.030Z,2.71
2019-02-03T18:18:28.602Z,2.72
2019-02-03T18:20:58.206Z,2.74
2019-02-03T18:23:27.807Z,2.45
2019-02-03T18:25:57.365Z,2.15
2019-02-03T18:28:26.937Z,2.01
2019-02-03T18:30:56.483Z,1.88
2019-02-03T18:33:26.556Z,1.68
2019-02-03T18:35:56.071Z,1.61
2019-02-03T18:38:25.575Z,1.48
2019-02-03T18:40:55.383Z,1.33
2019-02-03T18:43:24.958Z,1.17
2019-02-03T18:45:54.603Z,1.05
2019-02-03T18:48:24.237Z,1.06
2019-02-03T18:50:53.821Z,0.91
2019-02-03T18:53:23.493Z,0.89
2019-02-03T18:55:53.034Z,0.82
2019-02-03T18:58:22.632Z,0.76
2019-02-03T19:00:52.535Z,0.73
2019-02-03T19:03:22.092Z,0.69
2019-02-03T19:05:51.699Z,0.57
2019-02-03T19:08:21.277Z,0.58
2019-02-03T19:10:50.885Z,0.62
2019-02-03T19:13:20.385Z,0.35
2019-02-03T19:15:52.704Z,0.18
2019-02-03T19:18:21.538Z,0.17
2019-02-03T19:20:51.036Z,0.04
2019-02-03T19:23:20.610Z,0.03
2019-02-03T19:25:50.154Z,0.07
2019-02-03T19:28:19.934Z,0.03
2019-02-03T19:30:49.500Z,-0.02
2019-02-03T19:33:19.110Z,-0.03
2019-02-03T19:35:48.617Z,-0.23
2019-02-03T19:38:18.195Z,-0.23
2019-02-03T19:40:48.515Z,-0.26
2019-02-03T19:43:18.012Z,-0.18
2019-02-03T19:45:47.704Z,-0.22
2019-02-03T19:48:17.181Z,-0.29
2019-02-03T19:50:46.782Z,-0.29
2019-02-03T19:53:16.314Z,-0.39
2019-02-03T19:55:45.974Z,-0.37
2019-02-03T19:58:15.574Z,-0.34
2019-02-03T20:00:46.897Z,-0.52
2019-02-03T20:03:16.404Z,-0.57
2019-02-03T20:05:46.053Z,-0.59
2019-02-03T20:08:16.022Z,-0.52
2019-02-03T20:10:45.647Z,-0.44
2019-02-03T20:13:15.216Z,-0.42
2019-02-03T20:15:44.724Z,-0.39
2019-02-03T20:18:14.367Z,-0.43
2019-02-03T20:20:43.882Z,-0.40
2019-02-03T20:23:13.658Z,-0.47
2019-02-03T20:25:43.384Z,-0.51
2019-02-03T20:28:12.965Z,-0.55
2019-02-03T20:30:42.614Z,-0.45
2019-02-03T20:33:12.228Z,-0.34
2019-02-03T20:35:41.820Z,-0.20
2019-02-03T20:38:11.583Z,-0.27
2019-02-03T20:40:45.522Z,-0.21
2019-02-03T20:43:15.126Z,-0.12
2019-02-03T20:45:49.387Z,-0.01
2019-02-03T20:48:16.113Z,0.14
2019-02-03T20:50:45.771Z,0.16
2019-02-03T20:53:19.067Z,0.08
2019-02-03T20:55:48.563Z,-0.03
2019-02-03T20:58:18.163Z,0.01
2019-02-03T21:00:47.715Z,0.01
2019-02-03T21:03:17.601Z,0.03
2019-02-03T21:05:47.129Z,0.11
2019-02-03T21:08:16.759Z,0.16
2019-02-03T21:10:46.297Z,0.19
2019-02-03T21:13:15.871Z,0.13
2019-02-03T21:15:45.498Z,0.01
2019-02-03T21:18:15.059Z,-0.02
2019-02-03T21:20:44.601Z,-0.12
2019-02-03T21:23:14.634Z,-0.12
2019-02-03T21:25:44.119Z,-0.06
2019-02-03T21:28:13.706Z,-0.02
2019-02-03T21:30:43.575Z,0.16
2019-02-03T21:33:13.152Z,0.17
2019-02-03T21:35:42.608Z,0.11
2019-02-03T21:38:12.376Z,-0.02
2019-02-03T21:40:42.007Z,-0.15
2019-02-03T21:43:11.491Z,-0.33
2019-02-03T21:45:44.879Z,-0.35
2019-02-03T21:48:12.365Z,-0.31
2019-02-03T21:50:41.990Z,-0.23
2019-02-03T21:53:11.651Z,-0.12
2019-02-03T21:55:41.143Z,-0.16
2019-02-03T21:58:10.843Z,-0.20
2019-02-03T22:00:40.498Z,-0.03
2019-02-03T22:03:10.012Z,0.04
2019-02-03T22:05:39.531Z,-0.06
2019-02-03T22:08:09.107Z,-0.25
2019-02-03T22:10:39.083Z,-0.42
2019-02-03T22:13:08.668Z,-0.51
2019-02-03T22:15:38.247Z,-0.54
2019-02-03T22:18:07.905Z,-0.57
2019-02-03T22:20:37.423Z,-0.53
2019-02-03T22:23:07.106Z,-0.52
2019-02-03T22:25:37.109Z,-0.61
2019-02-03T22:28:06.820Z,-0.82
2019-02-03T22:30:38.943Z,-0.88
2019-02-03T22:33:08.603Z,-0.97
2019-02-03T22:35:38.319Z,-1.14
2019-02-03T22:38:08.166Z,-1.20
2019-02-03T22:40:37.823Z,-1.18
2019-02-03T22:43:07.450Z,-1.23
2019-02-03T22:45:38.023Z,-1.22
2019-02-03T22:48:07.939Z,-1.17
2019-02-03T22:50:37.701Z,-1.01
2019-02-03T22:53:09.434Z,-0.90
2019-02-03T22:55:38.639Z,-0.81
2019-02-03T22:58:09.197Z,-0.82
2019-02-03T23:00:52.252Z,-0.76
2019-02-03T23:03:32.260Z,-0.81
2019-02-03T23:06:01.848Z,-0.93
2019-02-03T23:08:31.422Z,-0.96
2019-02-03T23:11:01.019Z,-0.91
2019-02-03T23:13:31.078Z,-0.75
2019-02-03T23:16:00.600Z,-0.84
2019-02-03T23:18:30.080Z,-0.79
2019-02-03T23:20:59.644Z,-0.76
2019-02-03T23:23:29.207Z,-0.64
2019-02-03T23:25:58.773Z,-0.45
2019-02-03T23:28:28.459Z,-0.35
2019-02-03T23:30:58.018Z,-0.31
2019-02-03T23:33:27.605Z,-0.47
2019-02-03T23:35:57.117Z,-0.34
2019-02-03T23:38:26.605Z,-0.53
2019-02-03T23:40:56.110Z,-0.64
2019-02-03T23:43:25.704Z,-0.75
2019-02-03T23:45:55.276Z,-0.67
2019-02-03T23:48:24.876Z,-0.82
2019-02-03T23:50:54.541Z,-0.87
2019-02-03T23:53:25.769Z,-0.80
2019-02-03T23:55:55.346Z,-0.70
2019-02-03T23:58:24.930Z,-0.92
